Terminal Aerodrome Forecast
Issued by NWS

Home | Current Version | Previous Version | Text Only | Print | Product List | Glossary On
Versions: 1 2 3 4 5 6 7 8 9 10 11 12 13 14 15 16 17 18 19 20 21 22 23 24 25 26 27 28 29 30 31 32 33 34 35 36 37 38 39 40 41 42
000
FTUS43 KDTX 281740
TAFYIP
TAF
KYIP 281740Z 2818/2918 18009KT P6SM BKN050 OVC100
     FM282200 19008KT 6SM -SN BR BKN040 OVC080
     FM290400 17008KT 4SM -SN BKN035 OVC050
     FM290900 15008KT P6SM BKN060 OVC100
     FM291300 19010KT P6SM BKN100=

USA.gov is the U.S. government's official web portal to all federal, state and local government web resources and services.